createdAt,value
2023-04-17T00:01:31.728Z,100953.91
2023-04-17T00:03:59.307Z,100950.97
2023-04-17T00:06:27.488Z,100958.78
2023-04-17T00:08:55.074Z,100954.25
2023-04-17T00:11:22.617Z,100959.31
2023-04-17T00:13:50.237Z,100951.53
2023-04-17T00:16:20.918Z,100954.53
2023-04-17T00:18:48.617Z,100958.97
2023-04-17T00:21:16.199Z,100947.66
2023-04-17T00:23:43.719Z,100953.66
2023-04-17T00:26:11.561Z,100951.00
2023-04-17T00:28:42.108Z,100950.75
2023-04-17T00:31:09.581Z,100951.78
2023-04-17T00:33:37.262Z,100955.94
2023-04-17T00:36:05.476Z,100953.38
2023-04-17T00:38:33.030Z,100949.13
2023-04-17T00:41:00.824Z,100951.78
2023-04-17T00:43:29.067Z,100951.19
2023-04-17T00:45:57.084Z,100954.53
2023-04-17T00:48:25.181Z,100944.09
2023-04-17T00:50:53.926Z,100943.31
2023-04-17T00:53:21.480Z,100948.53
2023-04-17T00:55:51.348Z,100959.84
2023-04-17T00:58:19.335Z,100953.66
2023-04-17T01:00:47.072Z,100952.50
2023-04-17T01:03:14.828Z,100945.53
2023-04-17T01:05:44.605Z,100947.81
2023-04-17T01:08:12.074Z,100955.72
2023-04-17T01:10:39.660Z,100950.38
2023-04-17T01:13:08.041Z,100951.91
2023-04-17T01:15:37.881Z,100947.56
2023-04-17T01:18:06.661Z,100950.81
2023-04-17T01:20:34.903Z,100952.34
2023-04-17T01:23:02.517Z,100955.59
2023-04-17T01:25:30.212Z,100944.44
2023-04-17T01:27:57.971Z,100946.47
2023-04-17T01:30:26.896Z,100943.75
2023-04-17T01:33:03.735Z,100949.56
2023-04-17T01:35:31.341Z,100945.94
2023-04-17T01:37:59.117Z,100946.75
2023-04-17T01:40:26.915Z,100951.16
2023-04-17T01:42:54.450Z,100952.94
2023-04-17T01:45:22.103Z,100953.94
2023-04-17T01:47:51.536Z,100953.13
2023-04-17T01:50:19.584Z,100951.44
2023-04-17T01:52:49.627Z,100943.75
2023-04-17T01:55:17.587Z,100951.38
2023-04-17T01:57:45.113Z,100952.31
2023-04-17T02:00:13.101Z,100955.69
2023-04-17T02:02:43.882Z,100948.88
2023-04-17T02:05:11.603Z,100950.44
2023-04-17T02:07:39.048Z,100949.75
2023-04-17T02:10:07.148Z,100960.19
2023-04-17T02:12:37.829Z,100949.75
2023-04-17T02:15:06.266Z,100951.81
2023-04-17T02:17:35.168Z,100951.00
2023-04-17T02:20:06.958Z,100941.53
2023-04-17T02:22:34.738Z,100950.22
2023-04-17T02:25:02.384Z,100943.75
2023-04-17T02:27:35.225Z,100952.56
2023-04-17T02:30:04.443Z,100951.00
2023-04-17T02:32:32.270Z,100943.19
2023-04-17T02:34:59.761Z,100942.31
2023-04-17T02:37:27.372Z,100940.75
2023-04-17T02:39:56.068Z,100941.88
2023-04-17T02:42:23.613Z,100952.41
2023-04-17T02:44:51.363Z,100943.91
2023-04-17T02:47:21.140Z,100948.00
2023-04-17T02:49:48.776Z,100939.38
2023-04-17T02:52:16.264Z,100938.78
2023-04-17T02:54:43.852Z,100946.03
2023-04-17T02:57:11.984Z,100944.53
2023-04-17T02:59:39.857Z,100937.63
2023-04-17T03:02:08.678Z,100947.88
2023-04-17T03:04:41.430Z,100935.06
2023-04-17T03:07:10.516Z,100949.94
2023-04-17T03:09:38.856Z,100958.53
2023-04-17T03:12:06.496Z,100951.53
2023-04-17T03:14:33.990Z,100948.16
2023-04-17T03:17:01.625Z,100948.88
2023-04-17T03:19:29.327Z,100949.22
2023-04-17T03:21:57.272Z,100957.03
2023-04-17T03:24:24.900Z,100961.44
2023-04-17T03:26:52.546Z,100972.69
2023-04-17T03:29:22.039Z,100975.09
2023-04-17T03:31:49.650Z,100978.53
2023-04-17T03:34:21.751Z,100975.16
2023-04-17T03:36:50.908Z,100976.94
2023-04-17T03:39:18.533Z,100969.31
2023-04-17T03:41:46.179Z,100970.66
2023-04-17T03:44:13.940Z,100978.09
2023-04-17T03:46:41.693Z,100970.72
2023-04-17T03:49:09.623Z,100976.13
2023-04-17T03:51:38.200Z,100980.00
2023-04-17T03:54:12.464Z,100981.31
2023-04-17T03:56:42.465Z,100978.28
2023-04-17T03:59:13.415Z,100982.13
2023-04-17T04:01:46.528Z,100979.66
2023-04-17T04:04:19.041Z,100977.25
2023-04-17T04:06:47.412Z,100975.81
2023-04-17T04:09:17.004Z,100978.16
2023-04-17T04:11:44.639Z,100982.09
2023-04-17T04:14:12.185Z,100975.94
2023-04-17T04:16:40.514Z,100973.97
2023-04-17T04:19:13.869Z,100979.84
2023-04-17T04:21:43.699Z,100967.16
2023-04-17T04:24:14.264Z,100968.66
2023-04-17T04:26:43.429Z,100976.94
2023-04-17T04:29:12.180Z,100980.00
2023-04-17T04:32:03.947Z,100982.06
2023-04-17T04:34:37.960Z,100978.75
2023-04-17T04:37:06.716Z,100978.75
2023-04-17T04:39:43.185Z,100983.97
2023-04-17T04:42:22.476Z,100982.00
2023-04-17T04:45:07.113Z,100985.22
2023-04-17T04:47:36.552Z,100990.75
2023-04-17T04:50:04.424Z,100989.94
2023-04-17T04:52:35.856Z,101002.13
2023-04-17T04:55:09.926Z,100996.97
2023-04-17T04:57:45.086Z,100993.16
2023-04-17T05:00:14.537Z,100993.53
2023-04-17T05:02:48.886Z,100982.63
2023-04-17T05:05:18.988Z,100983.53
2023-04-17T05:07:46.627Z,100988.75
2023-04-17T05:10:16.340Z,100983.00
2023-04-17T05:12:49.868Z,100983.91
2023-04-17T05:15:17.910Z,100990.19
2023-04-17T05:17:45.497Z,100987.03
2023-04-17T05:20:15.134Z,100984.69
2023-04-17T05:22:50.953Z,100978.06
2023-04-17T05:25:26.160Z,100989.03
2023-04-17T05:27:56.054Z,100982.84
2023-04-17T05:30:23.813Z,100983.22
2023-04-17T05:33:01.180Z,100986.16
2023-04-17T05:35:56.236Z,100986.03
2023-04-17T05:38:24.682Z,100988.38
2023-04-17T05:40:53.514Z,100986.16
2023-04-17T05:43:21.608Z,100980.59
2023-04-17T05:45:49.495Z,100974.50
2023-04-17T05:48:17.179Z,100983.84
2023-04-17T05:50:45.770Z,100978.72
2023-04-17T05:53:13.668Z,100974.00
2023-04-17T05:55:50.112Z,100975.63
2023-04-17T05:58:23.547Z,100966.47
2023-04-17T06:00:54.899Z,100976.06
2023-04-17T06:03:24.105Z,100964.84
2023-04-17T06:05:59.020Z,100972.81
2023-04-17T06:08:28.184Z,100973.00
2023-04-17T06:10:56.465Z,100964.56
2023-04-17T06:13:26.768Z,100975.69
2023-04-17T06:15:55.114Z,100974.81
2023-04-17T06:18:22.654Z,100975.88
2023-04-17T06:20:50.703Z,100984.63
2023-04-17T06:23:18.345Z,100980.34
2023-04-17T06:25:46.452Z,100986.41
2023-04-17T06:28:14.000Z,100986.22
2023-04-17T06:30:41.714Z,100975.75
2023-04-17T06:33:09.946Z,100985.00
2023-04-17T06:35:37.945Z,100984.72
2023-04-17T06:38:28.577Z,100983.72
2023-04-17T06:40:57.241Z,100982.69
2023-04-17T06:43:24.874Z,100989.84
2023-04-17T06:45:54.330Z,100994.25
2023-04-17T06:48:22.196Z,100990.19
2023-04-17T06:50:49.850Z,100987.88
2023-04-17T06:53:18.665Z,100994.50
2023-04-17T06:55:46.174Z,100983.34
2023-04-17T06:58:14.153Z,100990.97
2023-04-17T07:00:41.684Z,100989.44
2023-04-17T07:03:09.504Z,100997.69
2023-04-17T07:05:37.469Z,100992.56
2023-04-17T07:08:05.489Z,101004.25
2023-04-17T07:10:33.084Z,100986.94
2023-04-17T07:13:00.661Z,100995.06
2023-04-17T07:15:31.615Z,100994.34
2023-04-17T07:17:59.329Z,100992.97
2023-04-17T07:20:26.944Z,100991.91
2023-04-17T07:22:56.107Z,100992.59
2023-04-17T07:25:23.905Z,100998.44
2023-04-17T07:27:53.757Z,100995.59
2023-04-17T07:30:21.289Z,100983.91
2023-04-17T07:32:48.824Z,100987.81
2023-04-17T07:35:16.747Z,100977.84
2023-04-17T07:41:27.525Z,100983.88
2023-04-17T07:44:22.783Z,100993.53
2023-04-17T07:46:59.003Z,100988.31
2023-04-17T07:50:00.526Z,100974.47
2023-04-17T07:52:28.342Z,100989.41
2023-04-17T07:55:11.201Z,100969.72
2023-04-17T07:58:42.549Z,100969.94
2023-04-17T08:01:10.178Z,100974.19
2023-04-17T08:03:40.872Z,100974.41
2023-04-17T08:06:08.817Z,100976.09
2023-04-17T08:08:36.534Z,100970.50
2023-04-17T08:15:53.954Z,100961.66
2023-04-17T08:18:59.010Z,100958.81
2023-04-17T08:21:27.070Z,100959.28
2023-04-17T08:23:55.407Z,100964.97
2023-04-17T08:26:23.182Z,100961.72
2023-04-17T08:28:53.842Z,100963.59
2023-04-17T08:31:46.509Z,100965.06
2023-04-17T08:35:00.338Z,100954.53
2023-04-17T08:37:58.535Z,100949.22
2023-04-17T08:49:34.214Z,100951.19
2023-04-17T08:53:06.515Z,100941.88
2023-04-17T08:55:55.525Z,100937.88
2023-04-17T08:58:28.459Z,100947.19
2023-04-17T09:01:08.571Z,100953.28
2023-04-17T09:03:58.361Z,100952.28
2023-04-17T09:06:59.316Z,100951.25
2023-04-17T09:10:10.324Z,100946.72
2023-04-17T09:13:26.175Z,100943.31
2023-04-17T09:16:11.252Z,100955.00
2023-04-17T09:18:40.450Z,100938.22
2023-04-17T09:21:08.576Z,100935.56
2023-04-17T09:23:51.187Z,100936.66
2023-04-17T09:26:21.225Z,100937.53
2023-04-17T09:29:09.252Z,100937.53
2023-04-17T09:31:40.314Z,100937.34
2023-04-17T09:34:12.656Z,100942.16
2023-04-17T09:36:42.859Z,100927.00
2023-04-17T09:39:20.855Z,100926.09
2023-04-17T09:42:13.149Z,100939.19
2023-04-17T09:48:27.746Z,100922.97
2023-04-17T09:55:29.412Z,100917.72
2023-04-17T10:01:23.067Z,100921.59
2023-04-17T10:04:34.959Z,100927.75
2023-04-17T10:15:16.736Z,100923.38
2023-04-17T10:18:18.491Z,100929.81
2023-04-17T10:21:38.548Z,100926.66
2023-04-17T10:24:24.941Z,100926.38
2023-04-17T10:26:53.770Z,100922.25
2023-04-17T10:29:56.910Z,100927.59
2023-04-17T10:32:26.602Z,100923.91
2023-04-17T10:35:17.373Z,100918.94
2023-04-17T10:37:50.772Z,100925.28
2023-04-17T10:40:21.564Z,100917.91
2023-04-17T10:43:17.880Z,100918.75
2023-04-17T10:46:18.088Z,100917.72
2023-04-17T10:48:52.989Z,100920.31
2023-04-17T10:51:23.423Z,100920.69
2023-04-17T10:53:52.259Z,100921.94
2023-04-17T10:56:35.907Z,100913.44
2023-04-17T10:59:08.898Z,100923.16
2023-04-17T11:01:48.580Z,100926.47
2023-04-17T11:04:25.019Z,100922.88
2023-04-17T11:06:54.228Z,100916.94
2023-04-17T11:09:25.019Z,100915.34
2023-04-17T11:11:57.018Z,100919.22
2023-04-17T11:14:24.661Z,100920.25
2023-04-17T11:16:52.483Z,100921.28
2023-04-17T11:19:24.919Z,100910.66
2023-04-17T11:21:57.354Z,100905.16
2023-04-17T11:24:29.944Z,100901.28
2023-04-17T11:27:00.297Z,100904.97
2023-04-17T11:29:28.359Z,100903.00
2023-04-17T11:31:57.447Z,100900.25
2023-04-17T11:34:28.420Z,100913.25
2023-04-17T11:36:58.280Z,100896.56
2023-04-17T11:39:29.423Z,100894.22
2023-04-17T11:41:58.061Z,100884.91
2023-04-17T11:44:26.704Z,100892.84
2023-04-17T11:46:56.604Z,100892.06
2023-04-17T11:49:38.442Z,100887.91
2023-04-17T11:52:06.680Z,100885.22
2023-04-17T11:54:38.952Z,100893.72
2023-04-17T11:57:12.777Z,100894.22
2023-04-17T11:59:42.326Z,100892.81
2023-04-17T12:02:12.655Z,100896.38
2023-04-17T12:04:40.862Z,100881.28
2023-04-17T12:07:20.920Z,100885.72
2023-04-17T12:09:56.493Z,100881.28
2023-04-17T12:12:24.388Z,100876.44
2023-04-17T12:14:52.081Z,100886.28
2023-04-17T12:17:19.613Z,100870.13
2023-04-17T12:19:47.210Z,100869.25
2023-04-17T12:22:14.772Z,100866.44
2023-04-17T12:24:42.323Z,100874.44
2023-04-17T12:27:09.912Z,100872.56
2023-04-17T12:32:10.984Z,100863.09
2023-04-17T12:34:38.917Z,100878.00
2023-04-17T12:37:06.480Z,100867.31
2023-04-17T12:39:34.102Z,100865.16
2023-04-17T12:42:01.597Z,100863.19
2023-04-17T12:44:29.485Z,100860.50
2023-04-17T12:46:57.183Z,100856.97
2023-04-17T12:49:24.785Z,100858.69
2023-04-17T12:51:52.657Z,100862.13
2023-04-17T12:54:20.188Z,100856.94
2023-04-17T12:56:47.882Z,100850.78
2023-04-17T12:59:16.140Z,100855.00
2023-04-17T13:01:43.812Z,100853.88
2023-04-17T13:04:11.803Z,100857.19
2023-04-17T13:06:39.626Z,100854.22
2023-04-17T13:09:07.486Z,100855.78
2023-04-17T13:11:35.065Z,100855.59
2023-04-17T13:14:02.570Z,100855.38
2023-04-17T13:16:30.299Z,100863.97
2023-04-17T13:18:57.999Z,100852.81
2023-04-17T13:21:25.546Z,100842.44
2023-04-17T13:23:53.106Z,100844.31
2023-04-17T13:26:20.756Z,100851.19
2023-04-17T13:28:48.945Z,100839.72
2023-04-17T13:31:16.469Z,100848.22
2023-04-17T13:33:44.772Z,100845.41
2023-04-17T13:36:12.383Z,100858.13
2023-04-17T13:38:39.957Z,100853.47
2023-04-17T13:41:07.756Z,100854.78
2023-04-17T13:43:40.488Z,100856.97
2023-04-17T13:46:13.871Z,100853.78
2023-04-17T13:48:43.942Z,100855.91
2023-04-17T13:51:13.439Z,100848.59
2023-04-17T13:53:42.842Z,100850.06
2023-04-17T13:56:25.975Z,100854.91
2023-04-17T13:58:58.080Z,100853.25
2023-04-17T14:01:29.518Z,100857.66
2023-04-17T14:04:01.891Z,100855.91
2023-04-17T14:06:32.824Z,100851.91
2023-04-17T14:09:01.208Z,100846.13
2023-04-17T14:11:36.990Z,100848.13
2023-04-17T14:14:08.538Z,100851.16
2023-04-17T14:16:36.399Z,100853.56
2023-04-17T14:19:13.794Z,100859.75
2023-04-17T14:21:42.941Z,100849.25
2023-04-17T14:24:10.612Z,100858.88
2023-04-17T14:26:38.942Z,100859.63
2023-04-17T14:29:06.973Z,100857.75
2023-04-17T14:31:34.690Z,100859.13
2023-04-17T14:34:02.528Z,100842.19
2023-04-17T14:36:31.205Z,100856.69
2023-04-17T14:38:59.104Z,100851.28
2023-04-17T14:41:30.062Z,100850.09
2023-04-17T14:43:57.818Z,100858.31
2023-04-17T14:46:25.716Z,100860.97
2023-04-17T14:48:56.446Z,100859.59
2023-04-17T14:51:24.495Z,100862.16
2023-04-17T14:53:53.240Z,100863.75
2023-04-17T14:56:24.144Z,100856.59
2023-04-17T14:58:51.788Z,100851.41
2023-04-17T15:01:19.371Z,100863.56
2023-04-17T15:03:48.874Z,100857.56
2023-04-17T15:06:19.022Z,100853.13
2023-04-17T15:08:46.705Z,100854.59
2023-04-17T15:11:14.288Z,100862.06
2023-04-17T15:13:42.005Z,100854.78
2023-04-17T15:16:09.980Z,100850.38
2023-04-17T15:18:39.460Z,100844.88
2023-04-17T15:21:07.676Z,100850.06
2023-04-17T15:23:36.245Z,100843.16
2023-04-17T15:26:04.152Z,100834.97
2023-04-17T15:28:33.179Z,100844.22
2023-04-17T15:31:02.455Z,100843.28
2023-04-17T15:33:30.150Z,100847.78
2023-04-17T15:35:59.741Z,100846.66
2023-04-17T15:38:27.912Z,100835.91
2023-04-17T15:40:55.971Z,100848.66
2023-04-17T15:43:23.631Z,100844.13
2023-04-17T15:45:52.190Z,100841.59
2023-04-17T15:48:19.960Z,100838.09
2023-04-17T15:50:47.613Z,100835.16
2023-04-17T15:53:15.213Z,100838.56
2023-04-17T15:55:42.800Z,100837.75
2023-04-17T15:58:10.481Z,100829.63
2023-04-17T16:00:38.829Z,100829.34
2023-04-17T16:03:09.334Z,100834.66
2023-04-17T16:05:37.239Z,100832.78
2023-04-17T16:08:06.992Z,100829.53
2023-04-17T16:10:35.299Z,100827.56
2023-04-17T16:13:02.840Z,100834.94
2023-04-17T16:15:30.603Z,100846.25
2023-04-17T16:17:58.303Z,100836.69
2023-04-17T16:20:26.924Z,100838.59
2023-04-17T16:22:54.515Z,100836.50
2023-04-17T16:25:22.158Z,100838.22
2023-04-17T16:27:49.762Z,100839.97
2023-04-17T16:30:17.823Z,100838.59
2023-04-17T16:32:45.692Z,100837.53
2023-04-17T16:35:13.320Z,100840.38
2023-04-17T16:37:40.850Z,100842.13
2023-04-17T16:40:09.071Z,100845.28
2023-04-17T16:42:36.583Z,100839.09
2023-04-17T16:45:04.919Z,100843.34
2023-04-17T16:47:33.252Z,100850.22
2023-04-17T16:50:00.969Z,100848.50
2023-04-17T16:52:28.478Z,100857.03
2023-04-17T16:54:56.070Z,100850.84
2023-04-17T16:57:23.809Z,100850.84
2023-04-17T16:59:51.291Z,100850.69
2023-04-17T17:02:18.833Z,100857.00
2023-04-17T17:04:46.626Z,100854.25
2023-04-17T17:07:14.320Z,100859.38
2023-04-17T17:09:42.173Z,100863.56
2023-04-17T17:12:11.166Z,100870.56
2023-04-17T17:14:39.133Z,100858.44
2023-04-17T17:17:06.757Z,100863.72
2023-04-17T17:19:35.216Z,100856.78
2023-04-17T17:22:03.193Z,100861.09
2023-04-17T17:24:31.880Z,100867.13
2023-04-17T17:27:02.892Z,100864.59
2023-04-17T17:29:30.958Z,100857.63
2023-04-17T17:31:58.736Z,100867.97
2023-04-17T17:34:27.930Z,100868.75
2023-04-17T17:36:55.935Z,100861.63
2023-04-17T17:39:23.964Z,100870.41
2023-04-17T17:41:51.857Z,100870.41
2023-04-17T17:44:19.893Z,100859.97
2023-04-17T17:46:47.775Z,100862.50
2023-04-17T17:49:15.522Z,100865.97
2023-04-17T17:51:44.649Z,100861.56
2023-04-17T17:54:12.965Z,100863.31
2023-04-17T17:56:40.989Z,100851.13
2023-04-17T17:59:08.924Z,100858.84
2023-04-17T18:01:36.754Z,100865.56
2023-04-17T18:04:07.072Z,100869.91
2023-04-17T18:06:35.503Z,100864.53
2023-04-17T18:09:04.086Z,100867.19
2023-04-17T18:11:31.858Z,100865.31
2023-04-17T18:14:01.006Z,100862.53
2023-04-17T18:16:32.973Z,100867.69
2023-04-17T18:19:03.641Z,100862.41
2023-04-17T18:21:32.125Z,100863.06
2023-04-17T18:24:00.288Z,100867.34
2023-04-17T18:26:27.979Z,100862.13
2023-04-17T18:28:55.872Z,100855.94
2023-04-17T18:31:25.329Z,100859.28
2023-04-17T18:33:53.085Z,100861.97
2023-04-17T18:36:20.684Z,100854.16
2023-04-17T18:38:48.373Z,100846.25
2023-04-17T18:41:16.129Z,100848.84
2023-04-17T18:43:43.921Z,100853.03
2023-04-17T18:46:12.058Z,100841.81
2023-04-17T18:48:41.075Z,100840.00
2023-04-17T18:51:10.841Z,100836.59
2023-04-17T18:53:38.810Z,100837.28
2023-04-17T18:56:08.796Z,100837.28
2023-04-17T18:58:40.444Z,100819.72
2023-04-17T19:01:11.516Z,100818.84
2023-04-17T19:03:39.740Z,100823.00
2023-04-17T19:06:09.849Z,100833.19
2023-04-17T19:08:39.614Z,100824.53
2023-04-17T19:11:07.341Z,100818.41
2023-04-17T19:13:37.679Z,100818.47
2023-04-17T19:16:05.537Z,100816.66
2023-04-17T19:18:33.168Z,100824.56
2023-04-17T19:21:02.116Z,100819.50
2023-04-17T19:23:29.816Z,100815.13
2023-04-17T19:25:59.623Z,100815.84
2023-04-17T19:28:28.458Z,100813.25
2023-04-17T19:30:57.988Z,100813.25
2023-04-17T19:33:25.827Z,100805.38
2023-04-17T19:35:53.377Z,100811.50
2023-04-17T19:38:21.627Z,100806.13
2023-04-17T19:41:15.355Z,100810.03
2023-04-17T19:43:44.325Z,100805.44
2023-04-17T19:46:13.721Z,100806.34
2023-04-17T19:48:43.726Z,100804.56
2023-04-17T19:51:13.464Z,100802.16
2023-04-17T19:53:44.201Z,100805.50
2023-04-17T19:56:11.943Z,100802.78
2023-04-17T19:58:41.156Z,100810.66
2023-04-17T20:01:09.073Z,100801.03
2023-04-17T20:03:38.601Z,100811.59
2023-04-17T20:06:07.461Z,100806.34
2023-04-17T20:08:35.302Z,100810.66
2023-04-17T20:11:04.606Z,100805.44
2023-04-17T20:13:32.071Z,100801.13
2023-04-17T20:15:59.836Z,100803.59
2023-04-17T20:18:27.765Z,100797.56
2023-04-17T20:20:55.841Z,100803.50
2023-04-17T20:23:23.449Z,100796.38
2023-04-17T20:25:51.152Z,100801.59
2023-04-17T20:28:18.791Z,100805.97
2023-04-17T20:30:46.563Z,100805.00
2023-04-17T20:33:14.209Z,100804.13
2023-04-17T20:35:42.386Z,100801.47
2023-04-17T20:38:09.875Z,100796.19
2023-04-17T20:40:37.492Z,100797.97
2023-04-17T20:43:05.156Z,100793.47
2023-04-17T20:45:32.704Z,100801.38
2023-04-17T20:48:00.509Z,100799.56
2023-04-17T20:50:28.720Z,100799.56
2023-04-17T20:52:58.075Z,100794.41
2023-04-17T20:55:28.944Z,100802.34
2023-04-17T20:57:56.868Z,100799.72
2023-04-17T21:00:24.623Z,100801.38
2023-04-17T21:02:52.523Z,100796.19
2023-04-17T21:05:20.518Z,100798.84
2023-04-17T21:07:50.758Z,100791.03
2023-04-17T21:10:22.592Z,100797.81
2023-04-17T21:12:50.578Z,100793.41
2023-04-17T21:15:18.448Z,100790.78
2023-04-17T21:17:47.931Z,100798.53
2023-04-17T21:20:16.022Z,100793.31
2023-04-17T21:22:43.777Z,100793.22
2023-04-17T21:25:11.459Z,100794.75
2023-04-17T21:27:40.281Z,100798.31
2023-04-17T21:30:10.695Z,100792.28
2023-04-17T21:32:40.374Z,100786.19
2023-04-17T21:35:09.353Z,100792.28
2023-04-17T21:37:37.066Z,100781.84
2023-04-17T21:40:05.294Z,100788.88
2023-04-17T21:42:33.204Z,100795.75
2023-04-17T21:45:01.175Z,100787.06
2023-04-17T21:47:30.543Z,100786.91
2023-04-17T21:50:00.364Z,100787.69
2023-04-17T21:52:28.197Z,100787.69
2023-04-17T21:55:02.863Z,100787.53
2023-04-17T21:57:32.173Z,100785.81
2023-04-17T22:00:00.548Z,100788.41
2023-04-17T22:02:28.579Z,100781.34
2023-04-17T22:04:56.581Z,100783.31
2023-04-17T22:07:24.622Z,100781.44
2023-04-17T22:09:52.508Z,100787.53
2023-04-17T22:12:23.292Z,100781.44
2023-04-17T22:14:51.254Z,100776.19
2023-04-17T22:17:19.525Z,100783.09
2023-04-17T22:19:47.437Z,100774.38
2023-04-17T22:22:15.275Z,100774.31
2023-04-17T22:24:43.168Z,100772.59
2023-04-17T22:27:11.353Z,100781.28
2023-04-17T22:29:39.119Z,100776.13
2023-04-17T22:32:06.988Z,100780.41
2023-04-17T22:34:34.694Z,100777.81
2023-04-17T22:37:02.661Z,100782.22
2023-04-17T22:39:30.676Z,100779.72
2023-04-17T22:41:58.440Z,100772.66
2023-04-17T22:44:26.412Z,100779.91
2023-04-17T22:46:54.173Z,100777.88
2023-04-17T22:49:21.839Z,100761.47
2023-04-17T22:51:49.708Z,100776.44
2023-04-17T22:54:22.746Z,100764.97
2023-04-17T22:56:51.167Z,100768.38
2023-04-17T22:59:19.041Z,100769.47
2023-04-17T23:01:46.841Z,100755.41
2023-04-17T23:04:16.916Z,100761.66
2023-04-17T23:06:44.603Z,100769.41
2023-04-17T23:09:12.339Z,100758.88
2023-04-17T23:11:40.253Z,100760.78
2023-04-17T23:14:07.974Z,100757.38
2023-04-17T23:16:35.871Z,100746.59
2023-04-17T23:19:03.707Z,100760.78
2023-04-17T23:21:31.513Z,100753.78
2023-04-17T23:23:59.388Z,100752.13
2023-04-17T23:26:27.310Z,100743.47
2023-04-17T23:28:55.264Z,100753.03
2023-04-17T23:31:23.100Z,100754.66
2023-04-17T23:33:51.115Z,100755.63
2023-04-17T23:36:18.871Z,100749.44
2023-04-17T23:38:46.645Z,100755.38
2023-04-17T23:41:14.616Z,100747.63
2023-04-17T23:43:42.506Z,100739.75
2023-04-17T23:46:10.285Z,100740.63
2023-04-17T23:48:38.101Z,100735.13
2023-04-17T23:51:05.972Z,100744.03
2023-04-17T23:53:33.629Z,100734.41
2023-04-17T23:56:01.656Z,100737.09
2023-04-17T23:58:29.369Z,100742.31
